sensor_id;sensor_type;location;lat;lon;timestamp;P1;durP1;ratioP1;P2;durP2;ratioP2
12603;SDS011;6367;52.508;13.284;2022-08-19T00:02:03;12.70;;;11.70;;
12603;SDS011;6367;52.508;13.284;2022-08-19T00:04:30;12.30;;;11.40;;
12603;SDS011;6367;52.508;13.284;2022-08-19T00:06:58;11.97;;;11.07;;
12603;SDS011;6367;52.508;13.284;2022-08-19T00:09:24;11.73;;;10.83;;
12603;SDS011;6367;52.508;13.284;2022-08-19T00:11:52;12.40;;;11.40;;
12603;SDS011;6367;52.508;13.284;2022-08-19T00:14:20;11.93;;;11.03;;
12603;SDS011;6367;52.508;13.284;2022-08-19T00:16:46;13.10;;;12.10;;
12603;SDS011;6367;52.508;13.284;2022-08-19T00:19:12;12.10;;;11.20;;
12603;SDS011;6367;52.508;13.284;2022-08-19T00:21:38;10.90;;;10.00;;
12603;SDS011;6367;52.508;13.284;2022-08-19T00:24:05;12.80;;;11.73;;
12603;SDS011;6367;52.508;13.284;2022-08-19T00:26:36;12.57;;;11.47;;
12603;SDS011;6367;52.508;13.284;2022-08-19T00:29:03;11.50;;;10.70;;
12603;SDS011;6367;52.508;13.284;2022-08-19T00:31:29;13.13;;;12.03;;
12603;SDS011;6367;52.508;13.284;2022-08-19T00:33:56;12.13;;;11.17;;
12603;SDS011;6367;52.508;13.284;2022-08-19T00:36:22;12.87;;;11.87;;
12603;SDS011;6367;52.508;13.284;2022-08-19T00:38:48;12.00;;;11.10;;
12603;SDS011;6367;52.508;13.284;2022-08-19T00:41:17;12.30;;;11.37;;
12603;SDS011;6367;52.508;13.284;2022-08-19T00:44:09;12.60;;;11.60;;
12603;SDS011;6367;52.508;13.284;2022-08-19T00:46:32;11.40;;;10.50;;
12603;SDS011;6367;52.508;13.284;2022-08-19T00:48:59;11.87;;;10.87;;
12603;SDS011;6367;52.508;13.284;2022-08-19T00:51:27;12.50;;;11.43;;
12603;SDS011;6367;52.508;13.284;2022-08-19T00:53:55;11.80;;;10.93;;
12603;SDS011;6367;52.508;13.284;2022-08-19T00:56:23;12.23;;;11.33;;
12603;SDS011;6367;52.508;13.284;2022-08-19T00:58:52;11.20;;;10.40;;
12603;SDS011;6367;52.508;13.284;2022-08-19T01:01:19;11.43;;;10.53;;
12603;SDS011;6367;52.508;13.284;2022-08-19T01:03:45;11.80;;;10.80;;
12603;SDS011;6367;52.508;13.284;2022-08-19T01:06:10;11.00;;;10.00;;
12603;SDS011;6367;52.508;13.284;2022-08-19T01:08:36;11.70;;;10.87;;
12603;SDS011;6367;52.508;13.284;2022-08-19T01:11:02;12.40;;;11.50;;
12603;SDS011;6367;52.508;13.284;2022-08-19T01:13:29;10.97;;;10.07;;
12603;SDS011;6367;52.508;13.284;2022-08-19T01:15:59;10.83;;;9.93;;
12603;SDS011;6367;52.508;13.284;2022-08-19T01:18:28;11.60;;;10.60;;
12603;SDS011;6367;52.508;13.284;2022-08-19T01:20:56;13.20;;;12.10;;
12603;SDS011;6367;52.508;13.284;2022-08-19T01:23:28;11.70;;;10.80;;
12603;SDS011;6367;52.508;13.284;2022-08-19T01:26:07;12.07;;;11.10;;
12603;SDS011;6367;52.508;13.284;2022-08-19T01:28:44;12.07;;;11.10;;
12603;SDS011;6367;52.508;13.284;2022-08-19T01:31:16;13.47;;;12.27;;
12603;SDS011;6367;52.508;13.284;2022-08-19T01:33:44;12.93;;;11.83;;
12603;SDS011;6367;52.508;13.284;2022-08-19T01:36:13;11.93;;;10.97;;
12603;SDS011;6367;52.508;13.284;2022-08-19T01:38:42;13.53;;;12.43;;
12603;SDS011;6367;52.508;13.284;2022-08-19T01:41:09;14.03;;;12.80;;
12603;SDS011;6367;52.508;13.284;2022-08-19T01:43:35;13.03;;;11.83;;
12603;SDS011;6367;52.508;13.284;2022-08-19T01:46:02;15.67;;;14.27;;
12603;SDS011;6367;52.508;13.284;2022-08-19T01:48:32;13.83;;;12.73;;
12603;SDS011;6367;52.508;13.284;2022-08-19T01:50:59;13.07;;;11.87;;
12603;SDS011;6367;52.508;13.284;2022-08-19T01:53:24;13.90;;;12.50;;
12603;SDS011;6367;52.508;13.284;2022-08-19T01:55:50;14.20;;;13.00;;
12603;SDS011;6367;52.508;13.284;2022-08-19T01:58:17;16.07;;;14.60;;
12603;SDS011;6367;52.508;13.284;2022-08-19T02:00:46;14.33;;;12.93;;
12603;SDS011;6367;52.508;13.284;2022-08-19T02:03:13;16.90;;;15.50;;
12603;SDS011;6367;52.508;13.284;2022-08-19T02:05:39;18.57;;;16.60;;
12603;SDS011;6367;52.508;13.284;2022-08-19T02:08:06;16.27;;;14.53;;
12603;SDS011;6367;52.508;13.284;2022-08-19T02:10:32;14.87;;;13.53;;
12603;SDS011;6367;52.508;13.284;2022-08-19T02:12:57;16.73;;;15.13;;
12603;SDS011;6367;52.508;13.284;2022-08-19T02:15:23;15.40;;;13.90;;
12603;SDS011;6367;52.508;13.284;2022-08-19T02:17:50;16.60;;;14.90;;
12603;SDS011;6367;52.508;13.284;2022-08-19T02:20:16;17.90;;;16.10;;
12603;SDS011;6367;52.508;13.284;2022-08-19T02:22:42;16.17;;;14.77;;
12603;SDS011;6367;52.508;13.284;2022-08-19T02:25:09;17.43;;;15.70;;
12603;SDS011;6367;52.508;13.284;2022-08-19T02:27:36;16.20;;;14.77;;
12603;SDS011;6367;52.508;13.284;2022-08-19T02:30:03;17.50;;;15.90;;
12603;SDS011;6367;52.508;13.284;2022-08-19T02:32:30;18.03;;;16.33;;
12603;SDS011;6367;52.508;13.284;2022-08-19T02:34:56;16.33;;;15.03;;
12603;SDS011;6367;52.508;13.284;2022-08-19T02:37:21;18.40;;;16.70;;
12603;SDS011;6367;52.508;13.284;2022-08-19T02:40:05;16.80;;;15.40;;
12603;SDS011;6367;52.508;13.284;2022-08-19T02:42:31;17.07;;;15.67;;
12603;SDS011;6367;52.508;13.284;2022-08-19T02:44:57;17.53;;;16.10;;
12603;SDS011;6367;52.508;13.284;2022-08-19T02:47:23;19.17;;;17.50;;
12603;SDS011;6367;52.508;13.284;2022-08-19T02:49:48;18.23;;;16.73;;
12603;SDS011;6367;52.508;13.284;2022-08-19T02:52:14;17.90;;;16.30;;
12603;SDS011;6367;52.508;13.284;2022-08-19T02:54:41;17.03;;;15.53;;
12603;SDS011;6367;52.508;13.284;2022-08-19T02:57:07;16.83;;;15.43;;
12603;SDS011;6367;52.508;13.284;2022-08-19T02:59:33;18.40;;;16.80;;
12603;SDS011;6367;52.508;13.284;2022-08-19T03:01:58;15.77;;;14.47;;
12603;SDS011;6367;52.508;13.284;2022-08-19T03:04:24;18.50;;;17.00;;
12603;SDS011;6367;52.508;13.284;2022-08-19T03:06:50;18.60;;;17.00;;
12603;SDS011;6367;52.508;13.284;2022-08-19T03:09:17;17.80;;;16.30;;
12603;SDS011;6367;52.508;13.284;2022-08-19T03:11:44;18.97;;;17.43;;
12603;SDS011;6367;52.508;13.284;2022-08-19T03:14:10;20.70;;;19.00;;
12603;SDS011;6367;52.508;13.284;2022-08-19T03:16:42;16.87;;;15.50;;
12603;SDS011;6367;52.508;13.284;2022-08-19T03:19:10;18.97;;;17.47;;
12603;SDS011;6367;52.508;13.284;2022-08-19T03:21:36;20.20;;;18.63;;
12603;SDS011;6367;52.508;13.284;2022-08-19T03:24:03;20.03;;;18.30;;
12603;SDS011;6367;52.508;13.284;2022-08-19T03:26:32;19.63;;;17.83;;
12603;SDS011;6367;52.508;13.284;2022-08-19T03:29:01;19.23;;;17.63;;
12603;SDS011;6367;52.508;13.284;2022-08-19T03:31:28;18.63;;;17.07;;
12603;SDS011;6367;52.508;13.284;2022-08-19T03:33:55;18.10;;;16.50;;
12603;SDS011;6367;52.508;13.284;2022-08-19T03:36:22;19.00;;;17.47;;
12603;SDS011;6367;52.508;13.284;2022-08-19T03:38:50;18.20;;;16.80;;
12603;SDS011;6367;52.508;13.284;2022-08-19T03:41:24;17.67;;;16.13;;
12603;SDS011;6367;52.508;13.284;2022-08-19T03:43:52;18.37;;;16.83;;
12603;SDS011;6367;52.508;13.284;2022-08-19T03:46:19;18.80;;;16.90;;
12603;SDS011;6367;52.508;13.284;2022-08-19T03:48:47;17.80;;;16.30;;
12603;SDS011;6367;52.508;13.284;2022-08-19T03:51:22;19.10;;;17.60;;
12603;SDS011;6367;52.508;13.284;2022-08-19T03:53:53;18.53;;;17.00;;
12603;SDS011;6367;52.508;13.284;2022-08-19T03:56:20;19.07;;;17.47;;
12603;SDS011;6367;52.508;13.284;2022-08-19T03:58:46;18.53;;;16.80;;
12603;SDS011;6367;52.508;13.284;2022-08-19T04:01:14;19.40;;;17.50;;
12603;SDS011;6367;52.508;13.284;2022-08-19T04:03:42;19.47;;;17.87;;
12603;SDS011;6367;52.508;13.284;2022-08-19T04:06:09;19.20;;;17.53;;
12603;SDS011;6367;52.508;13.284;2022-08-19T04:08:37;19.00;;;17.47;;
12603;SDS011;6367;52.508;13.284;2022-08-19T04:11:06;17.57;;;16.17;;
12603;SDS011;6367;52.508;13.284;2022-08-19T04:13:32;17.97;;;16.37;;
12603;SDS011;6367;52.508;13.284;2022-08-19T04:15:59;17.70;;;16.10;;
12603;SDS011;6367;52.508;13.284;2022-08-19T04:18:24;18.03;;;16.53;;
12603;SDS011;6367;52.508;13.284;2022-08-19T04:20:51;18.30;;;16.70;;
12603;SDS011;6367;52.508;13.284;2022-08-19T04:23:17;15.83;;;14.63;;
12603;SDS011;6367;52.508;13.284;2022-08-19T04:25:44;17.07;;;15.67;;
12603;SDS011;6367;52.508;13.284;2022-08-19T04:28:10;16.90;;;15.50;;
12603;SDS011;6367;52.508;13.284;2022-08-19T04:30:41;18.27;;;16.73;;
12603;SDS011;6367;52.508;13.284;2022-08-19T04:33:15;16.70;;;15.47;;
12603;SDS011;6367;52.508;13.284;2022-08-19T04:35:45;16.17;;;14.80;;
12603;SDS011;6367;52.508;13.284;2022-08-19T04:38:13;18.03;;;16.53;;
12603;SDS011;6367;52.508;13.284;2022-08-19T04:40:41;17.70;;;16.30;;
12603;SDS011;6367;52.508;13.284;2022-08-19T04:43:31;16.87;;;15.47;;
12603;SDS011;6367;52.508;13.284;2022-08-19T04:45:57;16.00;;;14.70;;
12603;SDS011;6367;52.508;13.284;2022-08-19T04:48:23;16.63;;;15.30;;
12603;SDS011;6367;52.508;13.284;2022-08-19T04:50:53;16.37;;;15.10;;
12603;SDS011;6367;52.508;13.284;2022-08-19T04:53:30;15.30;;;14.00;;
12603;SDS011;6367;52.508;13.284;2022-08-19T04:55:57;15.30;;;14.10;;
12603;SDS011;6367;52.508;13.284;2022-08-19T04:58:27;15.57;;;14.27;;
12603;SDS011;6367;52.508;13.284;2022-08-19T05:00:53;15.60;;;14.40;;
12603;SDS011;6367;52.508;13.284;2022-08-19T05:03:19;14.43;;;13.30;;
12603;SDS011;6367;52.508;13.284;2022-08-19T05:05:46;16.00;;;14.70;;
12603;SDS011;6367;52.508;13.284;2022-08-19T05:08:14;14.00;;;12.80;;
12603;SDS011;6367;52.508;13.284;2022-08-19T05:10:45;14.37;;;13.17;;
12603;SDS011;6367;52.508;13.284;2022-08-19T05:13:13;15.23;;;13.93;;
12603;SDS011;6367;52.508;13.284;2022-08-19T05:15:39;15.80;;;14.50;;
12603;SDS011;6367;52.508;13.284;2022-08-19T05:18:05;13.87;;;12.67;;
12603;SDS011;6367;52.508;13.284;2022-08-19T05:20:49;14.60;;;13.30;;
12603;SDS011;6367;52.508;13.284;2022-08-19T05:23:33;15.30;;;13.80;;
12603;SDS011;6367;52.508;13.284;2022-08-19T05:25:59;14.90;;;13.73;;
12603;SDS011;6367;52.508;13.284;2022-08-19T05:28:25;14.30;;;13.00;;
12603;SDS011;6367;52.508;13.284;2022-08-19T05:30:52;16.17;;;15.00;;
12603;SDS011;6367;52.508;13.284;2022-08-19T05:33:20;13.80;;;12.70;;
12603;SDS011;6367;52.508;13.284;2022-08-19T05:35:47;14.67;;;13.30;;
12603;SDS011;6367;52.508;13.284;2022-08-19T05:38:14;14.57;;;13.30;;
12603;SDS011;6367;52.508;13.284;2022-08-19T05:40:41;13.90;;;12.63;;
12603;SDS011;6367;52.508;13.284;2022-08-19T05:43:14;13.87;;;12.77;;
12603;SDS011;6367;52.508;13.284;2022-08-19T05:45:43;13.90;;;12.80;;
12603;SDS011;6367;52.508;13.284;2022-08-19T05:48:09;15.47;;;14.27;;
12603;SDS011;6367;52.508;13.284;2022-08-19T05:50:37;14.10;;;13.00;;
12603;SDS011;6367;52.508;13.284;2022-08-19T05:53:04;14.03;;;12.90;;
12603;SDS011;6367;52.508;13.284;2022-08-19T05:55:30;14.83;;;13.63;;
12603;SDS011;6367;52.508;13.284;2022-08-19T05:57:56;15.20;;;14.00;;
12603;SDS011;6367;52.508;13.284;2022-08-19T06:00:22;14.17;;;13.07;;
12603;SDS011;6367;52.508;13.284;2022-08-19T06:02:48;13.93;;;12.73;;
12603;SDS011;6367;52.508;13.284;2022-08-19T06:05:14;14.90;;;13.60;;
12603;SDS011;6367;52.508;13.284;2022-08-19T06:07:40;14.40;;;13.10;;
12603;SDS011;6367;52.508;13.284;2022-08-19T06:10:06;15.57;;;14.37;;
12603;SDS011;6367;52.508;13.284;2022-08-19T06:12:34;14.57;;;13.57;;
12603;SDS011;6367;52.508;13.284;2022-08-19T06:15:01;13.37;;;12.37;;
12603;SDS011;6367;52.508;13.284;2022-08-19T06:17:32;14.97;;;13.67;;
12603;SDS011;6367;52.508;13.284;2022-08-19T06:19:59;14.90;;;13.70;;
12603;SDS011;6367;52.508;13.284;2022-08-19T06:22:26;15.60;;;14.40;;
12603;SDS011;6367;52.508;13.284;2022-08-19T06:24:53;14.90;;;13.70;;
12603;SDS011;6367;52.508;13.284;2022-08-19T06:27:19;14.87;;;13.77;;
12603;SDS011;6367;52.508;13.284;2022-08-19T06:29:45;14.47;;;13.40;;
12603;SDS011;6367;52.508;13.284;2022-08-19T06:32:12;14.90;;;13.70;;
12603;SDS011;6367;52.508;13.284;2022-08-19T06:34:39;16.43;;;14.70;;
12603;SDS011;6367;52.508;13.284;2022-08-19T06:37:06;14.97;;;13.87;;
12603;SDS011;6367;52.508;13.284;2022-08-19T06:39:33;15.83;;;14.50;;
12603;SDS011;6367;52.508;13.284;2022-08-19T06:42:04;15.53;;;14.17;;
12603;SDS011;6367;52.508;13.284;2022-08-19T06:44:33;16.77;;;15.37;;
12603;SDS011;6367;52.508;13.284;2022-08-19T06:47:03;16.27;;;15.07;;
12603;SDS011;6367;52.508;13.284;2022-08-19T06:49:29;15.27;;;13.90;;
12603;SDS011;6367;52.508;13.284;2022-08-19T06:51:58;15.63;;;14.23;;
12603;SDS011;6367;52.508;13.284;2022-08-19T06:54:24;17.07;;;15.43;;
12603;SDS011;6367;52.508;13.284;2022-08-19T06:56:50;15.20;;;14.00;;
12603;SDS011;6367;52.508;13.284;2022-08-19T06:59:22;15.97;;;14.67;;
12603;SDS011;6367;52.508;13.284;2022-08-19T07:01:52;15.67;;;14.33;;
12603;SDS011;6367;52.508;13.284;2022-08-19T07:04:20;16.43;;;14.83;;
12603;SDS011;6367;52.508;13.284;2022-08-19T07:06:48;17.83;;;16.40;;
12603;SDS011;6367;52.508;13.284;2022-08-19T07:09:15;16.93;;;15.63;;
12603;SDS011;6367;52.508;13.284;2022-08-19T07:11:46;18.00;;;16.60;;
12603;SDS011;6367;52.508;13.284;2022-08-19T07:14:14;17.30;;;15.87;;
12603;SDS011;6367;52.508;13.284;2022-08-19T07:16:43;16.60;;;15.40;;
12603;SDS011;6367;52.508;13.284;2022-08-19T07:19:11;16.47;;;15.27;;
12603;SDS011;6367;52.508;13.284;2022-08-19T07:21:37;16.33;;;15.13;;
12603;SDS011;6367;52.508;13.284;2022-08-19T07:24:03;15.47;;;14.33;;
12603;SDS011;6367;52.508;13.284;2022-08-19T07:26:30;17.10;;;15.63;;
12603;SDS011;6367;52.508;13.284;2022-08-19T07:29:03;16.27;;;15.17;;
12603;SDS011;6367;52.508;13.284;2022-08-19T07:31:29;17.43;;;16.13;;
12603;SDS011;6367;52.508;13.284;2022-08-19T07:33:55;17.77;;;16.40;;
12603;SDS011;6367;52.508;13.284;2022-08-19T07:36:25;17.80;;;16.50;;
12603;SDS011;6367;52.508;13.284;2022-08-19T07:38:57;17.90;;;16.50;;
12603;SDS011;6367;52.508;13.284;2022-08-19T07:41:25;19.17;;;17.40;;
12603;SDS011;6367;52.508;13.284;2022-08-19T07:43:53;17.83;;;16.33;;
12603;SDS011;6367;52.508;13.284;2022-08-19T07:46:19;18.63;;;17.07;;
12603;SDS011;6367;52.508;13.284;2022-08-19T07:48:47;19.53;;;17.90;;
12603;SDS011;6367;52.508;13.284;2022-08-19T07:51:16;17.97;;;16.57;;
12603;SDS011;6367;52.508;13.284;2022-08-19T07:53:43;17.07;;;15.87;;
12603;SDS011;6367;52.508;13.284;2022-08-19T07:56:10;16.67;;;15.37;;
12603;SDS011;6367;52.508;13.284;2022-08-19T07:58:38;18.97;;;17.43;;
12603;SDS011;6367;52.508;13.284;2022-08-19T08:01:07;18.50;;;17.10;;
12603;SDS011;6367;52.508;13.284;2022-08-19T08:03:35;18.77;;;17.13;;
12603;SDS011;6367;52.508;13.284;2022-08-19T08:06:20;18.67;;;17.13;;
12603;SDS011;6367;52.508;13.284;2022-08-19T08:09:05;17.10;;;15.80;;
12603;SDS011;6367;52.508;13.284;2022-08-19T08:11:40;17.50;;;16.17;;
12603;SDS011;6367;52.508;13.284;2022-08-19T08:14:13;20.83;;;18.97;;
12603;SDS011;6367;52.508;13.284;2022-08-19T08:16:44;18.23;;;16.73;;
12603;SDS011;6367;52.508;13.284;2022-08-19T08:19:10;18.03;;;16.70;;
12603;SDS011;6367;52.508;13.284;2022-08-19T08:21:39;19.13;;;17.63;;
12603;SDS011;6367;52.508;13.284;2022-08-19T08:24:05;18.70;;;17.17;;
12603;SDS011;6367;52.508;13.284;2022-08-19T08:26:31;19.13;;;17.70;;
12603;SDS011;6367;52.508;13.284;2022-08-19T08:28:56;18.70;;;17.13;;
12603;SDS011;6367;52.508;13.284;2022-08-19T08:31:22;18.57;;;17.00;;
12603;SDS011;6367;52.508;13.284;2022-08-19T08:33:48;18.00;;;16.70;;
12603;SDS011;6367;52.508;13.284;2022-08-19T08:36:14;18.10;;;16.80;;
12603;SDS011;6367;52.508;13.284;2022-08-19T08:38:40;18.40;;;17.00;;
12603;SDS011;6367;52.508;13.284;2022-08-19T08:44:02;18.33;;;16.90;;
12603;SDS011;6367;52.508;13.284;2022-08-19T08:46:37;19.60;;;18.00;;
12603;SDS011;6367;52.508;13.284;2022-08-19T08:51:43;21.20;;;19.53;;
12603;SDS011;6367;52.508;13.284;2022-08-19T08:54:13;19.93;;;18.43;;
12603;SDS011;6367;52.508;13.284;2022-08-19T08:56:43;20.23;;;18.53;;
12603;SDS011;6367;52.508;13.284;2022-08-19T08:59:43;18.30;;;17.00;;
12603;SDS011;6367;52.508;13.284;2022-08-19T09:02:04;20.77;;;19.27;;
12603;SDS011;6367;52.508;13.284;2022-08-19T09:04:29;19.23;;;17.80;;
12603;SDS011;6367;52.508;13.284;2022-08-19T09:09:40;18.60;;;17.00;;
12603;SDS011;6367;52.508;13.284;2022-08-19T09:15:17;18.50;;;16.90;;
12603;SDS011;6367;52.508;13.284;2022-08-19T09:17:48;18.70;;;17.30;;
12603;SDS011;6367;52.508;13.284;2022-08-19T09:20:21;17.00;;;15.70;;
12603;SDS011;6367;52.508;13.284;2022-08-19T09:22:48;19.63;;;17.93;;
12603;SDS011;6367;52.508;13.284;2022-08-19T09:25:18;22.70;;;20.97;;
12603;SDS011;6367;52.508;13.284;2022-08-19T09:27:47;19.53;;;18.10;;
12603;SDS011;6367;52.508;13.284;2022-08-19T09:30:18;17.87;;;16.43;;
12603;SDS011;6367;52.508;13.284;2022-08-19T09:32:46;18.20;;;16.73;;
12603;SDS011;6367;52.508;13.284;2022-08-19T09:35:22;16.40;;;15.20;;
12603;SDS011;6367;52.508;13.284;2022-08-19T09:37:50;19.17;;;17.47;;
12603;SDS011;6367;52.508;13.284;2022-08-19T09:40:16;18.77;;;16.97;;
12603;SDS011;6367;52.508;13.284;2022-08-19T09:42:46;17.33;;;15.90;;
12603;SDS011;6367;52.508;13.284;2022-08-19T09:45:13;17.37;;;15.77;;
12603;SDS011;6367;52.508;13.284;2022-08-19T09:47:39;17.60;;;16.20;;
12603;SDS011;6367;52.508;13.284;2022-08-19T09:50:06;18.23;;;16.80;;
12603;SDS011;6367;52.508;13.284;2022-08-19T09:52:34;18.90;;;17.50;;
12603;SDS011;6367;52.508;13.284;2022-08-19T09:55:01;16.50;;;15.20;;
12603;SDS011;6367;52.508;13.284;2022-08-19T09:57:31;17.33;;;16.00;;
12603;SDS011;6367;52.508;13.284;2022-08-19T09:59:56;19.03;;;17.40;;
12603;SDS011;6367;52.508;13.284;2022-08-19T10:02:22;18.13;;;16.73;;
12603;SDS011;6367;52.508;13.284;2022-08-19T10:04:48;16.03;;;14.80;;
12603;SDS011;6367;52.508;13.284;2022-08-19T10:07:32;15.90;;;14.70;;
12603;SDS011;6367;52.508;13.284;2022-08-19T10:09:58;17.10;;;15.80;;
12603;SDS011;6367;52.508;13.284;2022-08-19T10:12:24;18.07;;;16.67;;
12603;SDS011;6367;52.508;13.284;2022-08-19T10:14:49;16.50;;;15.30;;
12603;SDS011;6367;52.508;13.284;2022-08-19T10:17:16;16.43;;;15.13;;
12603;SDS011;6367;52.508;13.284;2022-08-19T10:19:42;17.17;;;15.80;;
12603;SDS011;6367;52.508;13.284;2022-08-19T10:22:08;17.13;;;15.83;;
12603;SDS011;6367;52.508;13.284;2022-08-19T10:24:36;16.80;;;15.50;;
12603;SDS011;6367;52.508;13.284;2022-08-19T10:27:01;17.03;;;15.53;;
12603;SDS011;6367;52.508;13.284;2022-08-19T10:29:29;17.83;;;16.30;;
12603;SDS011;6367;52.508;13.284;2022-08-19T10:31:56;18.47;;;16.97;;
12603;SDS011;6367;52.508;13.284;2022-08-19T10:34:23;16.40;;;15.17;;
12603;SDS011;6367;52.508;13.284;2022-08-19T10:36:49;18.57;;;17.07;;
12603;SDS011;6367;52.508;13.284;2022-08-19T10:39:16;15.60;;;14.40;;
12603;SDS011;6367;52.508;13.284;2022-08-19T10:41:41;16.77;;;15.37;;
12603;SDS011;6367;52.508;13.284;2022-08-19T10:44:09;17.70;;;16.20;;
12603;SDS011;6367;52.508;13.284;2022-08-19T10:46:38;15.17;;;13.87;;
12603;SDS011;6367;52.508;13.284;2022-08-19T10:49:07;15.50;;;14.30;;
12603;SDS011;6367;52.508;13.284;2022-08-19T10:51:34;17.00;;;15.60;;
12603;SDS011;6367;52.508;13.284;2022-08-19T10:54:19;17.67;;;16.07;;
12603;SDS011;6367;52.508;13.284;2022-08-19T10:56:45;15.27;;;14.13;;
12603;SDS011;6367;52.508;13.284;2022-08-19T10:59:22;15.10;;;13.90;;
12603;SDS011;6367;52.508;13.284;2022-08-19T11:01:58;16.20;;;14.90;;
12603;SDS011;6367;52.508;13.284;2022-08-19T11:04:25;17.03;;;15.73;;
12603;SDS011;6367;52.508;13.284;2022-08-19T11:06:51;14.83;;;13.70;;
12603;SDS011;6367;52.508;13.284;2022-08-19T11:09:18;15.10;;;13.90;;
12603;SDS011;6367;52.508;13.284;2022-08-19T11:11:45;15.37;;;14.10;;
12603;SDS011;6367;52.508;13.284;2022-08-19T11:14:13;14.77;;;13.77;;
12603;SDS011;6367;52.508;13.284;2022-08-19T11:16:41;15.20;;;13.90;;
12603;SDS011;6367;52.508;13.284;2022-08-19T11:19:09;14.90;;;13.70;;
12603;SDS011;6367;52.508;13.284;2022-08-19T11:21:37;14.43;;;13.33;;
12603;SDS011;6367;52.508;13.284;2022-08-19T11:24:12;14.60;;;13.40;;
12603;SDS011;6367;52.508;13.284;2022-08-19T11:26:40;14.10;;;13.00;;
12603;SDS011;6367;52.508;13.284;2022-08-19T11:29:07;15.37;;;14.20;;
12603;SDS011;6367;52.508;13.284;2022-08-19T11:31:38;14.53;;;13.50;;
12603;SDS011;6367;52.508;13.284;2022-08-19T11:34:10;15.80;;;14.50;;
12603;SDS011;6367;52.508;13.284;2022-08-19T11:36:38;14.30;;;13.20;;
12603;SDS011;6367;52.508;13.284;2022-08-19T11:39:07;13.70;;;12.50;;
12603;SDS011;6367;52.508;13.284;2022-08-19T11:41:33;14.47;;;13.27;;
12603;SDS011;6367;52.508;13.284;2022-08-19T11:43:59;13.27;;;12.37;;
12603;SDS011;6367;52.508;13.284;2022-08-19T11:46:26;13.30;;;12.30;;
12603;SDS011;6367;52.508;13.284;2022-08-19T11:48:54;13.70;;;12.60;;
12603;SDS011;6367;52.508;13.284;2022-08-19T11:51:22;13.80;;;12.73;;
12603;SDS011;6367;52.508;13.284;2022-08-19T11:53:49;13.13;;;12.03;;
12603;SDS011;6367;52.508;13.284;2022-08-19T11:56:16;14.67;;;13.57;;
12603;SDS011;6367;52.508;13.284;2022-08-19T11:58:42;15.50;;;14.10;;
12603;SDS011;6367;52.508;13.284;2022-08-19T12:01:09;12.50;;;11.50;;
12603;SDS011;6367;52.508;13.284;2022-08-19T12:03:36;12.83;;;11.93;;
12603;SDS011;6367;52.508;13.284;2022-08-19T12:06:06;12.97;;;11.97;;
12603;SDS011;6367;52.508;13.284;2022-08-19T12:08:34;13.67;;;12.67;;
12603;SDS011;6367;52.508;13.284;2022-08-19T12:11:00;12.37;;;11.47;;
12603;SDS011;6367;52.508;13.284;2022-08-19T12:13:27;12.60;;;11.33;;
12603;SDS011;6367;52.508;13.284;2022-08-19T12:15:53;10.70;;;9.90;;
12603;SDS011;6367;52.508;13.284;2022-08-19T12:18:19;12.70;;;11.80;;
12603;SDS011;6367;52.508;13.284;2022-08-19T12:20:45;12.50;;;11.50;;
12603;SDS011;6367;52.508;13.284;2022-08-19T12:23:12;11.43;;;10.40;;
12603;SDS011;6367;52.508;13.284;2022-08-19T12:25:43;11.83;;;10.83;;
12603;SDS011;6367;52.508;13.284;2022-08-19T12:28:17;13.17;;;12.17;;
12603;SDS011;6367;52.508;13.284;2022-08-19T12:30:44;10.83;;;10.10;;
12603;SDS011;6367;52.508;13.284;2022-08-19T12:33:10;10.70;;;10.03;;
12603;SDS011;6367;52.508;13.284;2022-08-19T12:35:41;10.70;;;9.67;;
12603;SDS011;6367;52.508;13.284;2022-08-19T12:38:09;10.83;;;9.83;;
12603;SDS011;6367;52.508;13.284;2022-08-19T12:40:35;12.00;;;11.10;;
12603;SDS011;6367;52.508;13.284;2022-08-19T12:43:01;11.50;;;10.60;;
12603;SDS011;6367;52.508;13.284;2022-08-19T12:45:27;10.07;;;9.37;;
12603;SDS011;6367;52.508;13.284;2022-08-19T12:47:53;11.37;;;10.30;;
12603;SDS011;6367;52.508;13.284;2022-08-19T12:50:19;10.90;;;10.17;;
12603;SDS011;6367;52.508;13.284;2022-08-19T12:52:46;10.83;;;9.93;;
12603;SDS011;6367;52.508;13.284;2022-08-19T12:55:13;11.47;;;10.60;;
12603;SDS011;6367;52.508;13.284;2022-08-19T12:57:39;10.97;;;10.17;;
12603;SDS011;6367;52.508;13.284;2022-08-19T13:02:37;12.23;;;11.33;;
12603;SDS011;6367;52.508;13.284;2022-08-19T13:05:06;13.63;;;12.53;;
12603;SDS011;6367;52.508;13.284;2022-08-19T13:07:33;11.87;;;10.80;;
12603;SDS011;6367;52.508;13.284;2022-08-19T13:09:59;13.00;;;12.10;;
12603;SDS011;6367;52.508;13.284;2022-08-19T13:12:26;11.80;;;10.97;;
12603;SDS011;6367;52.508;13.284;2022-08-19T13:14:55;11.90;;;11.00;;
12603;SDS011;6367;52.508;13.284;2022-08-19T13:17:21;13.03;;;11.93;;
12603;SDS011;6367;52.508;13.284;2022-08-19T13:19:47;11.67;;;10.77;;
12603;SDS011;6367;52.508;13.284;2022-08-19T13:22:12;12.20;;;11.20;;
12603;SDS011;6367;52.508;13.284;2022-08-19T13:24:38;11.87;;;10.97;;
12603;SDS011;6367;52.508;13.284;2022-08-19T13:27:04;11.63;;;10.80;;
12603;SDS011;6367;52.508;13.284;2022-08-19T13:29:29;12.07;;;11.17;;
12603;SDS011;6367;52.508;13.284;2022-08-19T13:32:13;12.30;;;11.20;;
12603;SDS011;6367;52.508;13.284;2022-08-19T13:34:57;12.73;;;11.53;;
12603;SDS011;6367;52.508;13.284;2022-08-19T13:37:23;13.17;;;12.13;;
12603;SDS011;6367;52.508;13.284;2022-08-19T13:40:19;12.30;;;11.40;;
12603;SDS011;6367;52.508;13.284;2022-08-19T13:42:49;12.70;;;11.80;;
12603;SDS011;6367;52.508;13.284;2022-08-19T13:45:16;11.93;;;11.13;;
12603;SDS011;6367;52.508;13.284;2022-08-19T13:47:47;11.53;;;10.77;;
12603;SDS011;6367;52.508;13.284;2022-08-19T13:50:15;12.23;;;11.33;;
12603;SDS011;6367;52.508;13.284;2022-08-19T13:52:44;12.60;;;11.70;;
12603;SDS011;6367;52.508;13.284;2022-08-19T13:55:12;10.60;;;9.90;;
12603;SDS011;6367;52.508;13.284;2022-08-19T13:57:38;12.07;;;11.10;;
12603;SDS011;6367;52.508;13.284;2022-08-19T14:00:06;11.30;;;10.50;;
12603;SDS011;6367;52.508;13.284;2022-08-19T14:02:35;10.83;;;10.03;;
12603;SDS011;6367;52.508;13.284;2022-08-19T14:05:03;11.90;;;10.90;;
12603;SDS011;6367;52.508;13.284;2022-08-19T14:07:30;12.10;;;11.30;;
12603;SDS011;6367;52.508;13.284;2022-08-19T14:09:56;12.00;;;11.07;;
12603;SDS011;6367;52.508;13.284;2022-08-19T14:12:21;12.17;;;11.20;;
12603;SDS011;6367;52.508;13.284;2022-08-19T14:14:47;12.17;;;11.07;;
12603;SDS011;6367;52.508;13.284;2022-08-19T14:17:13;11.57;;;10.63;;
12603;SDS011;6367;52.508;13.284;2022-08-19T14:19:39;12.20;;;11.20;;
12603;SDS011;6367;52.508;13.284;2022-08-19T14:22:05;11.57;;;10.70;;
12603;SDS011;6367;52.508;13.284;2022-08-19T14:24:31;11.50;;;10.60;;
12603;SDS011;6367;52.508;13.284;2022-08-19T14:26:59;11.60;;;10.70;;
12603;SDS011;6367;52.508;13.284;2022-08-19T14:29:25;12.40;;;11.50;;
12603;SDS011;6367;52.508;13.284;2022-08-19T14:31:53;12.40;;;11.50;;
12603;SDS011;6367;52.508;13.284;2022-08-19T14:34:21;11.57;;;10.77;;
12603;SDS011;6367;52.508;13.284;2022-08-19T14:36:47;11.47;;;10.57;;
12603;SDS011;6367;52.508;13.284;2022-08-19T14:39:12;12.40;;;11.50;;
12603;SDS011;6367;52.508;13.284;2022-08-19T14:41:39;11.47;;;10.53;;